sensor_id;sensor_type;location;lat;lon;timestamp;P1;durP1;ratioP1;P2;durP2;ratioP2
59273;SDS011;45044;41.572;24.730;2024-01-16T00:02:18;9.40;;;5.60;;
59273;SDS011;45044;41.572;24.730;2024-01-16T00:04:45;7.13;;;3.30;;
59273;SDS011;45044;41.572;24.730;2024-01-16T00:07:19;7.85;;;2.92;;
59273;SDS011;45044;41.572;24.730;2024-01-16T00:09:45;4.07;;;2.38;;
59273;SDS011;45044;41.572;24.730;2024-01-16T00:12:13;4.18;;;2.40;;
59273;SDS011;45044;41.572;24.730;2024-01-16T00:14:39;1.48;;;0.80;;
59273;SDS011;45044;41.572;24.730;2024-01-16T00:17:06;2.10;;;1.00;;
59273;SDS011;45044;41.572;24.730;2024-01-16T00:19:34;8.70;;;5.13;;
59273;SDS011;45044;41.572;24.730;2024-01-16T00:22:01;9.45;;;5.07;;
59273;SDS011;45044;41.572;24.730;2024-01-16T00:24:30;4.93;;;2.03;;
59273;SDS011;45044;41.572;24.730;2024-01-16T00:26:57;1.85;;;0.70;;
59273;SDS011;45044;41.572;24.730;2024-01-16T00:29:25;0.40;;;0.40;;
59273;SDS011;45044;41.572;24.730;2024-01-16T00:31:52;0.85;;;0.57;;
59273;SDS011;45044;41.572;24.730;2024-01-16T00:34:19;1.05;;;0.75;;
59273;SDS011;45044;41.572;24.730;2024-01-16T00:36:46;3.08;;;1.23;;
59273;SDS011;45044;41.572;24.730;2024-01-16T00:39:14;4.50;;;2.00;;
59273;SDS011;45044;41.572;24.730;2024-01-16T00:41:40;1.35;;;0.40;;
59273;SDS011;45044;41.572;24.730;2024-01-16T00:44:10;0.82;;;0.52;;
59273;SDS011;45044;41.572;24.730;2024-01-16T00:46:37;3.42;;;1.30;;
59273;SDS011;45044;41.572;24.730;2024-01-16T00:49:04;3.65;;;1.33;;
59273;SDS011;45044;41.572;24.730;2024-01-16T00:51:31;2.38;;;1.10;;
59273;SDS011;45044;41.572;24.730;2024-01-16T00:53:57;1.02;;;0.47;;
59273;SDS011;45044;41.572;24.730;2024-01-16T00:56:24;0.82;;;0.50;;
59273;SDS011;45044;41.572;24.730;2024-01-16T00:58:54;1.25;;;0.60;;
59273;SDS011;45044;41.572;24.730;2024-01-16T01:01:20;0.60;;;0.50;;
59273;SDS011;45044;41.572;24.730;2024-01-16T01:03:48;1.10;;;0.50;;
59273;SDS011;45044;41.572;24.730;2024-01-16T01:06:14;1.17;;;0.57;;
59273;SDS011;45044;41.572;24.730;2024-01-16T01:08:41;6.68;;;3.83;;
59273;SDS011;45044;41.572;24.730;2024-01-16T01:11:08;4.00;;;2.55;;
59273;SDS011;45044;41.572;24.730;2024-01-16T01:13:35;3.83;;;1.90;;
59273;SDS011;45044;41.572;24.730;2024-01-16T01:16:02;2.63;;;1.83;;
59273;SDS011;45044;41.572;24.730;2024-01-16T01:18:29;2.90;;;1.95;;
59273;SDS011;45044;41.572;24.730;2024-01-16T01:20:56;5.72;;;3.13;;
59273;SDS011;45044;41.572;24.730;2024-01-16T01:23:23;4.28;;;2.50;;
59273;SDS011;45044;41.572;24.730;2024-01-16T01:25:50;6.68;;;3.45;;
59273;SDS011;45044;41.572;24.730;2024-01-16T01:28:18;9.20;;;3.38;;
59273;SDS011;45044;41.572;24.730;2024-01-16T01:30:45;7.90;;;3.55;;
59273;SDS011;45044;41.572;24.730;2024-01-16T01:33:12;5.97;;;3.10;;
59273;SDS011;45044;41.572;24.730;2024-01-16T01:35:39;7.85;;;3.83;;
59273;SDS011;45044;41.572;24.730;2024-01-16T01:38:06;5.72;;;2.25;;
59273;SDS011;45044;41.572;24.730;2024-01-16T01:40:34;5.38;;;1.75;;
59273;SDS011;45044;41.572;24.730;2024-01-16T01:43:20;9.63;;;3.90;;
59273;SDS011;45044;41.572;24.730;2024-01-16T01:45:55;2.25;;;1.27;;
59273;SDS011;45044;41.572;24.730;2024-01-16T01:51:12;7.93;;;3.42;;
59273;SDS011;45044;41.572;24.730;2024-01-16T01:53:41;5.88;;;2.53;;
59273;SDS011;45044;41.572;24.730;2024-01-16T01:56:17;9.10;;;4.57;;
59273;SDS011;45044;41.572;24.730;2024-01-16T01:58:45;7.13;;;3.30;;
59273;SDS011;45044;41.572;24.730;2024-01-16T02:01:16;5.68;;;2.95;;
59273;SDS011;45044;41.572;24.730;2024-01-16T02:03:45;5.70;;;2.40;;
59273;SDS011;45044;41.572;24.730;2024-01-16T02:06:13;5.22;;;2.50;;
59273;SDS011;45044;41.572;24.730;2024-01-16T02:08:44;6.55;;;2.88;;
59273;SDS011;45044;41.572;24.730;2024-01-16T02:11:11;8.47;;;3.37;;
59273;SDS011;45044;41.572;24.730;2024-01-16T02:13:38;11.70;;;5.50;;
59273;SDS011;45044;41.572;24.730;2024-01-16T02:16:05;5.53;;;3.00;;
59273;SDS011;45044;41.572;24.730;2024-01-16T02:18:32;9.23;;;3.87;;
59273;SDS011;45044;41.572;24.730;2024-01-16T02:21:00;6.00;;;2.93;;
59273;SDS011;45044;41.572;24.730;2024-01-16T02:23:28;5.33;;;2.33;;
59273;SDS011;45044;41.572;24.730;2024-01-16T02:25:57;9.37;;;4.20;;
59273;SDS011;45044;41.572;24.730;2024-01-16T02:28:24;8.17;;;3.27;;
59273;SDS011;45044;41.572;24.730;2024-01-16T02:30:51;6.70;;;3.07;;
59273;SDS011;45044;41.572;24.730;2024-01-16T02:33:18;7.77;;;3.57;;
59273;SDS011;45044;41.572;24.730;2024-01-16T02:35:45;9.70;;;4.53;;
59273;SDS011;45044;41.572;24.730;2024-01-16T02:38:11;10.80;;;5.60;;
59273;SDS011;45044;41.572;24.730;2024-01-16T02:40:38;7.73;;;4.33;;
59273;SDS011;45044;41.572;24.730;2024-01-16T02:43:05;9.43;;;3.87;;
59273;SDS011;45044;41.572;24.730;2024-01-16T02:45:33;10.67;;;7.07;;
59273;SDS011;45044;41.572;24.730;2024-01-16T02:48:01;9.27;;;4.07;;
59273;SDS011;45044;41.572;24.730;2024-01-16T02:50:30;8.87;;;4.23;;
59273;SDS011;45044;41.572;24.730;2024-01-16T02:52:57;19.63;;;11.37;;
59273;SDS011;45044;41.572;24.730;2024-01-16T02:55:23;13.67;;;8.33;;
59273;SDS011;45044;41.572;24.730;2024-01-16T02:57:51;23.47;;;12.60;;
59273;SDS011;45044;41.572;24.730;2024-01-16T03:00:18;18.40;;;9.40;;
59273;SDS011;45044;41.572;24.730;2024-01-16T03:02:44;14.80;;;8.90;;
59273;SDS011;45044;41.572;24.730;2024-01-16T03:05:11;20.00;;;11.80;;
59273;SDS011;45044;41.572;24.730;2024-01-16T03:07:40;18.67;;;9.50;;
59273;SDS011;45044;41.572;24.730;2024-01-16T03:10:07;14.30;;;8.63;;
59273;SDS011;45044;41.572;24.730;2024-01-16T03:12:34;19.87;;;9.13;;
59273;SDS011;45044;41.572;24.730;2024-01-16T03:15:01;15.73;;;7.20;;
59273;SDS011;45044;41.572;24.730;2024-01-16T03:17:28;11.03;;;6.50;;
59273;SDS011;45044;41.572;24.730;2024-01-16T03:19:55;13.63;;;6.67;;
59273;SDS011;45044;41.572;24.730;2024-01-16T03:22:21;12.87;;;7.07;;
59273;SDS011;45044;41.572;24.730;2024-01-16T03:24:49;16.83;;;9.80;;
59273;SDS011;45044;41.572;24.730;2024-01-16T03:27:17;14.83;;;8.63;;
59273;SDS011;45044;41.572;24.730;2024-01-16T03:29:44;19.27;;;10.27;;
59273;SDS011;45044;41.572;24.730;2024-01-16T03:32:12;19.50;;;10.57;;
59273;SDS011;45044;41.572;24.730;2024-01-16T03:34:38;15.13;;;8.63;;
59273;SDS011;45044;41.572;24.730;2024-01-16T03:37:07;22.53;;;15.00;;
59273;SDS011;45044;41.572;24.730;2024-01-16T03:39:33;20.23;;;13.60;;
59273;SDS011;45044;41.572;24.730;2024-01-16T03:42:00;17.50;;;10.07;;
59273;SDS011;45044;41.572;24.730;2024-01-16T03:44:28;21.17;;;12.73;;
59273;SDS011;45044;41.572;24.730;2024-01-16T03:46:55;21.03;;;12.27;;
59273;SDS011;45044;41.572;24.730;2024-01-16T03:49:22;18.97;;;11.37;;
59273;SDS011;45044;41.572;24.730;2024-01-16T03:51:49;15.87;;;8.30;;
59273;SDS011;45044;41.572;24.730;2024-01-16T03:54:16;17.53;;;10.43;;
59273;SDS011;45044;41.572;24.730;2024-01-16T03:56:42;11.53;;;7.10;;
59273;SDS011;45044;41.572;24.730;2024-01-16T03:59:09;20.77;;;10.77;;
59273;SDS011;45044;41.572;24.730;2024-01-16T04:01:36;21.53;;;12.10;;
59273;SDS011;45044;41.572;24.730;2024-01-16T04:04:03;28.73;;;15.40;;
59273;SDS011;45044;41.572;24.730;2024-01-16T04:06:33;25.57;;;13.80;;
59273;SDS011;45044;41.572;24.730;2024-01-16T04:09:00;25.23;;;13.50;;
59273;SDS011;45044;41.572;24.730;2024-01-16T04:11:28;35.97;;;17.60;;
59273;SDS011;45044;41.572;24.730;2024-01-16T04:13:55;29.10;;;16.33;;
59273;SDS011;45044;41.572;24.730;2024-01-16T04:16:23;31.80;;;18.03;;
59273;SDS011;45044;41.572;24.730;2024-01-16T04:18:49;30.07;;;17.43;;
59273;SDS011;45044;41.572;24.730;2024-01-16T04:21:16;60.67;;;27.27;;
59273;SDS011;45044;41.572;24.730;2024-01-16T04:23:46;57.43;;;28.20;;
59273;SDS011;45044;41.572;24.730;2024-01-16T04:26:13;46.53;;;24.33;;
59273;SDS011;45044;41.572;24.730;2024-01-16T04:28:40;42.67;;;22.87;;
59273;SDS011;45044;41.572;24.730;2024-01-16T04:31:08;22.33;;;15.10;;
59273;SDS011;45044;41.572;24.730;2024-01-16T04:33:35;46.53;;;24.43;;
59273;SDS011;45044;41.572;24.730;2024-01-16T04:36:02;36.37;;;23.20;;
59273;SDS011;45044;41.572;24.730;2024-01-16T04:38:29;24.37;;;16.80;;
59273;SDS011;45044;41.572;24.730;2024-01-16T04:40:56;29.03;;;18.20;;
59273;SDS011;45044;41.572;24.730;2024-01-16T04:43:23;34.07;;;20.90;;
59273;SDS011;45044;41.572;24.730;2024-01-16T04:45:49;34.10;;;22.60;;
59273;SDS011;45044;41.572;24.730;2024-01-16T04:48:16;30.77;;;20.03;;
59273;SDS011;45044;41.572;24.730;2024-01-16T04:50:43;33.50;;;22.53;;
59273;SDS011;45044;41.572;24.730;2024-01-16T04:53:12;31.47;;;21.73;;
59273;SDS011;45044;41.572;24.730;2024-01-16T04:55:39;52.03;;;25.70;;
59273;SDS011;45044;41.572;24.730;2024-01-16T04:58:05;37.30;;;24.27;;
59273;SDS011;45044;41.572;24.730;2024-01-16T05:00:33;35.33;;;23.90;;
59273;SDS011;45044;41.572;24.730;2024-01-16T05:03:02;34.83;;;22.13;;
59273;SDS011;45044;41.572;24.730;2024-01-16T05:05:31;35.23;;;21.70;;
59273;SDS011;45044;41.572;24.730;2024-01-16T05:08:00;67.30;;;34.80;;
59273;SDS011;45044;41.572;24.730;2024-01-16T05:10:28;77.67;;;42.47;;
59273;SDS011;45044;41.572;24.730;2024-01-16T05:12:55;68.60;;;37.03;;
59273;SDS011;45044;41.572;24.730;2024-01-16T05:15:23;69.87;;;37.43;;
59273;SDS011;45044;41.572;24.730;2024-01-16T05:17:50;61.87;;;36.67;;
59273;SDS011;45044;41.572;24.730;2024-01-16T05:20:17;59.07;;;36.37;;
59273;SDS011;45044;41.572;24.730;2024-01-16T05:22:44;53.27;;;34.00;;
59273;SDS011;45044;41.572;24.730;2024-01-16T05:25:12;58.30;;;36.00;;
59273;SDS011;45044;41.572;24.730;2024-01-16T05:27:39;49.00;;;32.43;;
59273;SDS011;45044;41.572;24.730;2024-01-16T05:30:06;57.27;;;32.97;;
59273;SDS011;45044;41.572;24.730;2024-01-16T05:32:34;56.17;;;33.50;;
59273;SDS011;45044;41.572;24.730;2024-01-16T05:35:03;60.70;;;33.67;;
59273;SDS011;45044;41.572;24.730;2024-01-16T05:37:30;54.80;;;34.23;;
59273;SDS011;45044;41.572;24.730;2024-01-16T05:39:57;53.90;;;33.23;;
59273;SDS011;45044;41.572;24.730;2024-01-16T05:42:24;53.37;;;35.87;;
59273;SDS011;45044;41.572;24.730;2024-01-16T05:44:50;62.13;;;37.90;;
59273;SDS011;45044;41.572;24.730;2024-01-16T05:47:19;59.03;;;38.27;;
59273;SDS011;45044;41.572;24.730;2024-01-16T05:49:46;78.10;;;49.20;;
59273;SDS011;45044;41.572;24.730;2024-01-16T05:52:13;78.30;;;45.83;;
59273;SDS011;45044;41.572;24.730;2024-01-16T05:54:40;85.33;;;48.23;;
59273;SDS011;45044;41.572;24.730;2024-01-16T05:57:07;69.33;;;42.43;;
59273;SDS011;45044;41.572;24.730;2024-01-16T05:59:33;117.43;;;65.13;;
59273;SDS011;45044;41.572;24.730;2024-01-16T06:02:00;113.10;;;59.83;;
59273;SDS011;45044;41.572;24.730;2024-01-16T06:04:27;116.43;;;59.80;;
59273;SDS011;45044;41.572;24.730;2024-01-16T06:06:54;93.77;;;52.73;;
59273;SDS011;45044;41.572;24.730;2024-01-16T06:09:21;79.43;;;46.60;;
59273;SDS011;45044;41.572;24.730;2024-01-16T06:11:48;65.60;;;43.03;;
59273;SDS011;45044;41.572;24.730;2024-01-16T06:14:15;65.63;;;43.63;;
59273;SDS011;45044;41.572;24.730;2024-01-16T06:16:48;80.53;;;49.27;;
59273;SDS011;45044;41.572;24.730;2024-01-16T06:19:18;89.90;;;51.43;;
59273;SDS011;45044;41.572;24.730;2024-01-16T06:21:45;94.43;;;58.30;;
59273;SDS011;45044;41.572;24.730;2024-01-16T06:24:12;92.30;;;54.87;;
59273;SDS011;45044;41.572;24.730;2024-01-16T06:26:39;102.90;;;60.77;;
59273;SDS011;45044;41.572;24.730;2024-01-16T06:29:06;85.83;;;55.53;;
59273;SDS011;45044;41.572;24.730;2024-01-16T06:31:42;66.87;;;44.97;;
59273;SDS011;45044;41.572;24.730;2024-01-16T06:34:09;53.60;;;37.43;;
59273;SDS011;45044;41.572;24.730;2024-01-16T06:36:36;51.33;;;34.33;;
59273;SDS011;45044;41.572;24.730;2024-01-16T06:39:03;54.03;;;35.63;;
59273;SDS011;45044;41.572;24.730;2024-01-16T06:41:30;62.67;;;45.20;;
59273;SDS011;45044;41.572;24.730;2024-01-16T06:43:56;66.67;;;45.40;;
59273;SDS011;45044;41.572;24.730;2024-01-16T06:46:23;71.20;;;47.70;;
59273;SDS011;45044;41.572;24.730;2024-01-16T06:48:51;73.07;;;48.93;;
59273;SDS011;45044;41.572;24.730;2024-01-16T06:51:18;69.90;;;50.90;;
59273;SDS011;45044;41.572;24.730;2024-01-16T06:53:45;79.07;;;54.47;;
59273;SDS011;45044;41.572;24.730;2024-01-16T06:56:13;84.77;;;53.43;;
59273;SDS011;45044;41.572;24.730;2024-01-16T06:58:40;64.77;;;44.07;;
59273;SDS011;45044;41.572;24.730;2024-01-16T07:01:08;60.47;;;41.33;;
59273;SDS011;45044;41.572;24.730;2024-01-16T07:03:36;63.63;;;45.78;;
59273;SDS011;45044;41.572;24.730;2024-01-16T07:06:03;79.03;;;58.60;;
59273;SDS011;45044;41.572;24.730;2024-01-16T07:08:30;76.30;;;55.13;;
59273;SDS011;45044;41.572;24.730;2024-01-16T07:10:57;76.32;;;56.55;;
59273;SDS011;45044;41.572;24.730;2024-01-16T07:13:26;48.95;;;35.95;;
59273;SDS011;45044;41.572;24.730;2024-01-16T07:15:52;47.38;;;36.22;;
59273;SDS011;45044;41.572;24.730;2024-01-16T07:18:19;47.55;;;37.75;;
59273;SDS011;45044;41.572;24.730;2024-01-16T07:20:46;51.22;;;36.53;;
59273;SDS011;45044;41.572;24.730;2024-01-16T07:23:13;56.83;;;40.92;;
59273;SDS011;45044;41.572;24.730;2024-01-16T07:25:40;61.85;;;44.20;;
59273;SDS011;45044;41.572;24.730;2024-01-16T07:28:07;60.53;;;47.10;;
59273;SDS011;45044;41.572;24.730;2024-01-16T07:30:35;76.82;;;48.58;;
59273;SDS011;45044;41.572;24.730;2024-01-16T07:33:03;60.55;;;44.83;;
59273;SDS011;45044;41.572;24.730;2024-01-16T07:35:30;58.20;;;40.40;;
59273;SDS011;45044;41.572;24.730;2024-01-16T07:37:57;60.03;;;41.55;;
59273;SDS011;45044;41.572;24.730;2024-01-16T07:40:26;62.92;;;42.58;;
59273;SDS011;45044;41.572;24.730;2024-01-16T07:42:53;55.53;;;39.15;;
59273;SDS011;45044;41.572;24.730;2024-01-16T07:45:19;66.50;;;46.10;;
59273;SDS011;45044;41.572;24.730;2024-01-16T07:47:46;51.13;;;35.20;;
59273;SDS011;45044;41.572;24.730;2024-01-16T07:50:13;52.47;;;37.20;;
59273;SDS011;45044;41.572;24.730;2024-01-16T07:52:41;45.55;;;33.97;;
59273;SDS011;45044;41.572;24.730;2024-01-16T07:55:08;47.05;;;35.45;;
59273;SDS011;45044;41.572;24.730;2024-01-16T07:57:35;45.63;;;34.20;;
59273;SDS011;45044;41.572;24.730;2024-01-16T08:00:01;40.78;;;32.08;;
59273;SDS011;45044;41.572;24.730;2024-01-16T08:02:33;42.55;;;32.38;;
59273;SDS011;45044;41.572;24.730;2024-01-16T08:05:04;43.40;;;32.00;;
59273;SDS011;45044;41.572;24.730;2024-01-16T08:07:31;41.78;;;31.58;;
59273;SDS011;45044;41.572;24.730;2024-01-16T08:09:58;34.70;;;28.27;;
59273;SDS011;45044;41.572;24.730;2024-01-16T08:12:25;35.50;;;28.20;;
59273;SDS011;45044;41.572;24.730;2024-01-16T08:14:51;36.55;;;29.67;;
59273;SDS011;45044;41.572;24.730;2024-01-16T08:17:18;35.70;;;26.65;;
59273;SDS011;45044;41.572;24.730;2024-01-16T08:19:45;34.83;;;28.30;;
59273;SDS011;45044;41.572;24.730;2024-01-16T08:22:12;35.58;;;27.40;;
59273;SDS011;45044;41.572;24.730;2024-01-16T08:24:39;30.25;;;23.52;;
59273;SDS011;45044;41.572;24.730;2024-01-16T08:27:06;26.35;;;21.23;;
59273;SDS011;45044;41.572;24.730;2024-01-16T08:29:32;23.98;;;19.77;;
59273;SDS011;45044;41.572;24.730;2024-01-16T08:31:59;25.95;;;21.98;;
59273;SDS011;45044;41.572;24.730;2024-01-16T08:34:26;19.90;;;15.57;;
59273;SDS011;45044;41.572;24.730;2024-01-16T08:36:53;12.18;;;8.93;;
59273;SDS011;45044;41.572;24.730;2024-01-16T08:39:23;12.98;;;9.73;;
59273;SDS011;45044;41.572;24.730;2024-01-16T08:41:50;17.88;;;13.70;;
59273;SDS011;45044;41.572;24.730;2024-01-16T08:44:17;18.02;;;14.10;;
59273;SDS011;45044;41.572;24.730;2024-01-16T08:46:44;17.15;;;13.43;;
59273;SDS011;45044;41.572;24.730;2024-01-16T08:49:12;17.98;;;15.05;;
59273;SDS011;45044;41.572;24.730;2024-01-16T08:51:44;20.13;;;16.23;;
59273;SDS011;45044;41.572;24.730;2024-01-16T08:54:11;21.52;;;15.38;;
59273;SDS011;45044;41.572;24.730;2024-01-16T08:56:38;17.33;;;13.93;;
59273;SDS011;45044;41.572;24.730;2024-01-16T08:59:05;20.73;;;15.38;;
59273;SDS011;45044;41.572;24.730;2024-01-16T09:01:32;16.33;;;11.52;;
59273;SDS011;45044;41.572;24.730;2024-01-16T09:04:00;14.95;;;10.45;;
59273;SDS011;45044;41.572;24.730;2024-01-16T09:06:30;12.48;;;8.70;;
59273;SDS011;45044;41.572;24.730;2024-01-16T09:08:57;12.80;;;9.48;;
59273;SDS011;45044;41.572;24.730;2024-01-16T09:11:24;10.93;;;8.52;;
59273;SDS011;45044;41.572;24.730;2024-01-16T09:13:52;15.98;;;11.07;;
59273;SDS011;45044;41.572;24.730;2024-01-16T09:16:19;16.73;;;11.50;;
59273;SDS011;45044;41.572;24.730;2024-01-16T09:18:46;14.95;;;10.77;;
59273;SDS011;45044;41.572;24.730;2024-01-16T09:21:13;21.73;;;14.35;;
59273;SDS011;45044;41.572;24.730;2024-01-16T09:23:41;13.73;;;9.00;;
59273;SDS011;45044;41.572;24.730;2024-01-16T09:26:08;14.90;;;9.05;;
59273;SDS011;45044;41.572;24.730;2024-01-16T09:28:35;12.18;;;8.27;;
59273;SDS011;45044;41.572;24.730;2024-01-16T09:31:02;13.85;;;9.13;;
59273;SDS011;45044;41.572;24.730;2024-01-16T09:33:30;11.80;;;7.53;;
59273;SDS011;45044;41.572;24.730;2024-01-16T09:35:57;10.63;;;6.55;;
59273;SDS011;45044;41.572;24.730;2024-01-16T09:38:24;9.98;;;6.30;;
59273;SDS011;45044;41.572;24.730;2024-01-16T09:40:51;7.55;;;4.53;;
59273;SDS011;45044;41.572;24.730;2024-01-16T09:43:23;9.25;;;5.63;;
59273;SDS011;45044;41.572;24.730;2024-01-16T09:45:49;7.63;;;3.50;;
59273;SDS011;45044;41.572;24.730;2024-01-16T09:48:18;8.43;;;4.95;;
59273;SDS011;45044;41.572;24.730;2024-01-16T09:50:45;6.20;;;3.45;;
59273;SDS011;45044;41.572;24.730;2024-01-16T09:53:12;5.15;;;3.35;;
59273;SDS011;45044;41.572;24.730;2024-01-16T09:55:39;5.30;;;3.10;;
59273;SDS011;45044;41.572;24.730;2024-01-16T09:58:05;8.85;;;4.47;;
59273;SDS011;45044;41.572;24.730;2024-01-16T10:00:38;10.18;;;4.85;;
59273;SDS011;45044;41.572;24.730;2024-01-16T10:03:05;5.95;;;3.33;;
59273;SDS011;45044;41.572;24.730;2024-01-16T10:05:32;12.60;;;4.80;;
59273;SDS011;45044;41.572;24.730;2024-01-16T10:08:00;5.15;;;3.05;;
59273;SDS011;45044;41.572;24.730;2024-01-16T10:10:26;8.32;;;4.07;;
59273;SDS011;45044;41.572;24.730;2024-01-16T10:13:11;10.00;;;6.00;;
59273;SDS011;45044;41.572;24.730;2024-01-16T10:15:50;8.77;;;5.03;;
59273;SDS011;45044;41.572;24.730;2024-01-16T10:18:22;11.27;;;5.90;;
59273;SDS011;45044;41.572;24.730;2024-01-16T10:20:53;10.75;;;5.95;;
59273;SDS011;45044;41.572;24.730;2024-01-16T10:23:24;21.13;;;13.38;;
59273;SDS011;45044;41.572;24.730;2024-01-16T10:26:25;12.60;;;7.70;;
59273;SDS011;45044;41.572;24.730;2024-01-16T10:28:45;18.95;;;11.20;;
59273;SDS011;45044;41.572;24.730;2024-01-16T10:31:12;17.35;;;9.45;;
59273;SDS011;45044;41.572;24.730;2024-01-16T10:33:40;19.00;;;11.40;;
59273;SDS011;45044;41.572;24.730;2024-01-16T10:36:11;18.35;;;11.88;;
59273;SDS011;45044;41.572;24.730;2024-01-16T10:38:39;22.77;;;14.93;;
59273;SDS011;45044;41.572;24.730;2024-01-16T10:41:11;27.50;;;17.77;;
59273;SDS011;45044;41.572;24.730;2024-01-16T10:43:41;45.53;;;23.47;;
59273;SDS011;45044;41.572;24.730;2024-01-16T10:48:41;32.15;;;17.92;;
59273;SDS011;45044;41.572;24.730;2024-01-16T10:51:24;21.70;;;12.30;;
59273;SDS011;45044;41.572;24.730;2024-01-16T10:53:58;13.40;;;7.93;;
59273;SDS011;45044;41.572;24.730;2024-01-16T10:56:37;17.02;;;9.43;;
59273;SDS011;45044;41.572;24.730;2024-01-16T10:59:11;15.63;;;9.10;;
59273;SDS011;45044;41.572;24.730;2024-01-16T11:01:45;12.23;;;7.65;;
59273;SDS011;45044;41.572;24.730;2024-01-16T11:04:15;9.35;;;5.35;;
59273;SDS011;45044;41.572;24.730;2024-01-16T11:06:43;4.75;;;2.10;;
59273;SDS011;45044;41.572;24.730;2024-01-16T11:09:12;7.93;;;4.15;;
59273;SDS011;45044;41.572;24.730;2024-01-16T11:11:43;5.22;;;2.30;;
59273;SDS011;45044;41.572;24.730;2024-01-16T11:14:15;5.03;;;2.78;;
59273;SDS011;45044;41.572;24.730;2024-01-16T11:16:42;4.00;;;2.00;;
59273;SDS011;45044;41.572;24.730;2024-01-16T11:19:13;3.35;;;1.73;;
59273;SDS011;45044;41.572;24.730;2024-01-16T11:22:01;3.13;;;1.55;;
59273;SDS011;45044;41.572;24.730;2024-01-16T11:24:31;2.15;;;1.23;;
59273;SDS011;45044;41.572;24.730;2024-01-16T11:26:58;7.05;;;2.38;;
59273;SDS011;45044;41.572;24.730;2024-01-16T11:31:58;6.88;;;3.35;;
59273;SDS011;45044;41.572;24.730;2024-01-16T11:34:53;2.63;;;1.30;;
59273;SDS011;45044;41.572;24.730;2024-01-16T11:37:28;2.08;;;1.10;;
59273;SDS011;45044;41.572;24.730;2024-01-16T11:42:47;4.90;;;1.85;;
59273;SDS011;45044;41.572;24.730;2024-01-16T11:48:11;6.78;;;2.67;;
59273;SDS011;45044;41.572;24.730;2024-01-16T11:50:45;5.32;;;3.30;;
59273;SDS011;45044;41.572;24.730;2024-01-16T11:56:12;8.07;;;3.40;;
59273;SDS011;45044;41.572;24.730;2024-01-16T12:02:09;6.70;;;3.10;;
59273;SDS011;45044;41.572;24.730;2024-01-16T12:04:38;6.70;;;2.90;;
59273;SDS011;45044;41.572;24.730;2024-01-16T12:07:05;6.25;;;2.75;;
59273;SDS011;45044;41.572;24.730;2024-01-16T12:09:35;6.60;;;3.60;;
59273;SDS011;45044;41.572;24.730;2024-01-16T12:12:02;7.35;;;3.47;;
59273;SDS011;45044;41.572;24.730;2024-01-16T12:14:29;6.20;;;2.60;;
59273;SDS011;45044;41.572;24.730;2024-01-16T12:17:12;7.43;;;2.47;;
59273;SDS011;45044;41.572;24.730;2024-01-16T12:19:40;7.90;;;3.55;;
59273;SDS011;45044;41.572;24.730;2024-01-16T12:22:10;11.82;;;4.82;;
59273;SDS011;45044;41.572;24.730;2024-01-16T12:24:39;6.13;;;2.40;;
59273;SDS011;45044;41.572;24.730;2024-01-16T12:27:07;3.65;;;1.52;;
59273;SDS011;45044;41.572;24.730;2024-01-16T12:29:35;9.63;;;4.60;;
59273;SDS011;45044;41.572;24.730;2024-01-16T12:32:10;8.75;;;4.35;;
59273;SDS011;45044;41.572;24.730;2024-01-16T12:34:45;5.90;;;2.30;;
59273;SDS011;45044;41.572;24.730;2024-01-16T12:37:14;10.55;;;5.85;;
59273;SDS011;45044;41.572;24.730;2024-01-16T12:39:41;3.47;;;1.63;;
59273;SDS011;45044;41.572;24.730;2024-01-16T12:42:09;12.90;;;6.38;;
59273;SDS011;45044;41.572;24.730;2024-01-16T12:44:38;3.95;;;1.88;;
59273;SDS011;45044;41.572;24.730;2024-01-16T12:47:06;7.88;;;3.90;;
59273;SDS011;45044;41.572;24.730;2024-01-16T12:49:32;6.60;;;3.38;;
59273;SDS011;45044;41.572;24.730;2024-01-16T12:52:19;9.55;;;4.72;;
59273;SDS011;45044;41.572;24.730;2024-01-16T12:54:58;3.95;;;1.52;;
59273;SDS011;45044;41.572;24.730;2024-01-16T12:57:32;10.80;;;5.38;;
59273;SDS011;45044;41.572;24.730;2024-01-16T12:59:59;9.85;;;4.47;;
59273;SDS011;45044;41.572;24.730;2024-01-16T13:02:28;10.02;;;4.05;;
59273;SDS011;45044;41.572;24.730;2024-01-16T13:04:57;13.80;;;5.63;;
59273;SDS011;45044;41.572;24.730;2024-01-16T13:07:26;4.05;;;2.08;;
59273;SDS011;45044;41.572;24.730;2024-01-16T13:10:07;5.13;;;2.00;;
59273;SDS011;45044;41.572;24.730;2024-01-16T13:12:46;7.05;;;3.10;;
59273;SDS011;45044;41.572;24.730;2024-01-16T13:15:13;8.77;;;3.83;;
59273;SDS011;45044;41.572;24.730;2024-01-16T13:17:43;7.85;;;3.63;;
59273;SDS011;45044;41.572;24.730;2024-01-16T13:20:10;4.13;;;1.90;;
59273;SDS011;45044;41.572;24.730;2024-01-16T13:22:39;7.00;;;2.92;;
59273;SDS011;45044;41.572;24.730;2024-01-16T13:25:13;8.03;;;3.37;;
59273;SDS011;45044;41.572;24.730;2024-01-16T13:27:41;8.48;;;4.20;;
59273;SDS011;45044;41.572;24.730;2024-01-16T13:30:08;7.45;;;3.90;;
59273;SDS011;45044;41.572;24.730;2024-01-16T13:32:35;6.50;;;3.30;;
59273;SDS011;45044;41.572;24.730;2024-01-16T13:35:04;5.15;;;2.88;;
59273;SDS011;45044;41.572;24.730;2024-01-16T13:37:38;4.07;;;2.25;;
59273;SDS011;45044;41.572;24.730;2024-01-16T13:40:29;6.93;;;3.55;;
59273;SDS011;45044;41.572;24.730;2024-01-16T13:42:56;11.95;;;6.50;;
59273;SDS011;45044;41.572;24.730;2024-01-16T13:45:28;7.38;;;3.50;;
59273;SDS011;45044;41.572;24.730;2024-01-16T13:47:55;11.40;;;5.68;;
59273;SDS011;45044;41.572;24.730;2024-01-16T13:50:23;11.27;;;5.93;;
59273;SDS011;45044;41.572;24.730;2024-01-16T13:52:51;9.48;;;4.53;;
59273;SDS011;45044;41.572;24.730;2024-01-16T13:55:20;6.57;;;3.53;;
59273;SDS011;45044;41.572;24.730;2024-01-16T13:57:48;4.57;;;2.33;;
59273;SDS011;45044;41.572;24.730;2024-01-16T14:00:18;5.47;;;2.92;;
59273;SDS011;45044;41.572;24.730;2024-01-16T14:02:45;6.55;;;3.78;;
59273;SDS011;45044;41.572;24.730;2024-01-16T14:05:14;10.57;;;5.38;;
59273;SDS011;45044;41.572;24.730;2024-01-16T14:07:42;20.35;;;12.40;;
59273;SDS011;45044;41.572;24.730;2024-01-16T14:10:16;21.48;;;9.52;;
59273;SDS011;45044;41.572;24.730;2024-01-16T14:12:45;63.50;;;26.20;;
59273;SDS011;45044;41.572;24.730;2024-01-16T14:15:14;22.15;;;10.77;;
59273;SDS011;45044;41.572;24.730;2024-01-16T14:17:52;16.90;;;7.25;;
59273;SDS011;45044;41.572;24.730;2024-01-16T14:20:21;10.75;;;4.47;;
59273;SDS011;45044;41.572;24.730;2024-01-16T14:22:54;17.65;;;7.28;;
59273;SDS011;45044;41.572;24.730;2024-01-16T14:25:21;8.70;;;4.88;;
59273;SDS011;45044;41.572;24.730;2024-01-16T14:27:56;6.75;;;3.83;;
59273;SDS011;45044;41.572;24.730;2024-01-16T14:30:25;5.88;;;3.30;;
59273;SDS011;45044;41.572;24.730;2024-01-16T14:32:53;4.55;;;2.83;;
59273;SDS011;45044;41.572;24.730;2024-01-16T14:35:20;10.57;;;6.28;;
59273;SDS011;45044;41.572;24.730;2024-01-16T14:37:47;6.07;;;3.05;;
59273;SDS011;45044;41.572;24.730;2024-01-16T14:40:14;6.03;;;3.33;;
59273;SDS011;45044;41.572;24.730;2024-01-16T14:42:47;8.75;;;4.70;;
59273;SDS011;45044;41.572;24.730;2024-01-16T14:45:14;8.38;;;4.78;;
59273;SDS011;45044;41.572;24.730;2024-01-16T14:47:41;6.55;;;4.30;;
59273;SDS011;45044;41.572;24.730;2024-01-16T14:50:09;8.68;;;5.40;;